createdAt,value
2022-08-22T00:03:07.364Z,18.35
2022-08-22T00:04:06.377Z,17.25
2022-08-22T00:07:56.297Z,17.23
2022-08-22T00:25:29.479Z,16.97
2022-08-22T00:35:34.724Z,16.99
2022-08-22T00:39:40.790Z,16.98
2022-08-22T00:42:51.256Z,16.92
2022-08-22T00:56:52.642Z,16.88
2022-08-22T01:10:53.091Z,16.81
2022-08-22T01:21:31.416Z,16.73
2022-08-22T01:28:09.965Z,16.58
2022-08-22T01:31:28.736Z,16.64
2022-08-22T01:42:12.804Z,16.64
2022-08-22T01:45:49.240Z,16.54
2022-08-22T01:48:27.576Z,16.33
2022-08-22T01:51:30.150Z,16.25
2022-08-22T01:54:05.422Z,16.18
2022-08-22T01:57:15.460Z,16.23
2022-08-22T02:00:18.410Z,16.14
2022-08-22T02:03:28.970Z,16.09
2022-08-22T02:06:24.794Z,15.95
2022-08-22T02:09:42.395Z,15.92
2022-08-22T02:12:52.994Z,15.90
2022-08-22T02:16:23.985Z,15.90
2022-08-22T02:19:31.158Z,15.88
2022-08-22T02:22:44.566Z,15.75
2022-08-22T02:26:25.268Z,15.72
2022-08-22T02:29:24.483Z,15.71
2022-08-22T02:32:11.999Z,15.67
2022-08-22T02:34:55.231Z,15.61
2022-08-22T02:37:55.903Z,15.59
2022-08-22T02:42:00.868Z,15.59
2022-08-22T02:58:37.675Z,15.40
2022-08-22T03:01:23.383Z,15.43
2022-08-22T03:04:31.614Z,15.32
2022-08-22T03:11:19.364Z,15.34
2022-08-22T03:15:07.198Z,15.28
2022-08-22T03:18:43.169Z,15.10
2022-08-22T03:25:15.561Z,14.92
2022-08-22T03:29:20.564Z,14.96
2022-08-22T04:03:46.568Z,14.72
2022-08-22T04:31:47.316Z,14.68
2022-08-22T04:42:31.744Z,14.74
2022-08-22T04:49:36.768Z,14.82
2022-08-22T04:56:58.446Z,14.78
2022-08-22T05:02:51.242Z,14.68
2022-08-22T05:05:24.208Z,14.77
2022-08-22T05:08:00.625Z,14.79
2022-08-22T05:10:37.910Z,14.77
2022-08-22T05:13:19.724Z,14.80
2022-08-22T05:15:50.490Z,14.83
2022-08-22T05:18:29.548Z,14.86
2022-08-22T05:21:01.546Z,14.86
2022-08-22T05:23:54.112Z,14.92
2022-08-22T05:26:21.558Z,14.95
2022-08-22T05:28:53.501Z,14.96
2022-08-22T05:32:09.073Z,14.99
2022-08-22T05:34:41.525Z,15.03
2022-08-22T05:37:18.195Z,15.03
2022-08-22T05:39:51.180Z,15.08
2022-08-22T05:42:26.871Z,15.12
2022-08-22T05:44:55.104Z,15.15
2022-08-22T05:47:27.420Z,15.18
2022-08-22T05:50:18.389Z,15.37
2022-08-22T05:53:17.307Z,15.41
2022-08-22T05:56:11.560Z,15.53
2022-08-22T05:58:59.927Z,15.57
2022-08-22T06:02:00.097Z,15.72
2022-08-22T06:04:39.112Z,15.75
2022-08-22T06:07:21.060Z,15.86
2022-08-22T06:09:47.597Z,15.91
2022-08-22T06:12:24.049Z,16.03
2022-08-22T06:15:03.235Z,16.14
2022-08-22T06:17:51.386Z,16.17
2022-08-22T06:20:33.440Z,16.20
2022-08-22T06:23:03.028Z,16.25
2022-08-22T06:25:33.496Z,16.37
2022-08-22T06:28:06.774Z,16.42
2022-08-22T06:30:35.678Z,16.52
2022-08-22T06:33:08.410Z,16.67
2022-08-22T06:36:08.159Z,16.78
2022-08-22T06:38:58.426Z,16.82
2022-08-22T06:41:30.209Z,16.86
2022-08-22T06:43:58.933Z,16.97
2022-08-22T06:46:28.993Z,16.94
2022-08-22T06:49:02.182Z,17.07
2022-08-22T06:51:29.954Z,17.29
2022-08-22T06:54:03.749Z,17.41
2022-08-22T06:56:37.894Z,17.55
2022-08-22T06:59:11.552Z,17.70
2022-08-22T07:01:47.449Z,17.87
2022-08-22T07:04:15.905Z,17.99
2022-08-22T07:06:50.267Z,18.13
2022-08-22T07:09:23.618Z,18.17
2022-08-22T07:11:52.362Z,18.32
2022-08-22T07:14:41.739Z,18.47
2022-08-22T07:17:16.271Z,18.68
2022-08-22T07:20:08.364Z,18.77
2022-08-22T07:22:37.570Z,19.00
2022-08-22T07:25:13.297Z,19.24
2022-08-22T07:27:56.783Z,19.53
2022-08-22T07:30:27.934Z,19.76
2022-08-22T07:33:26.726Z,20.06
2022-08-22T07:35:59.124Z,20.30
2022-08-22T07:38:45.567Z,20.51
2022-08-22T07:41:22.420Z,20.61
2022-08-22T07:43:58.514Z,20.65
2022-08-22T07:46:37.064Z,21.07
2022-08-22T07:49:13.794Z,21.20
2022-08-22T07:51:49.673Z,21.43
2022-08-22T07:54:48.254Z,21.56
2022-08-22T07:57:31.741Z,21.64
2022-08-22T08:00:01.142Z,21.93
2022-08-22T08:02:28.761Z,22.24
2022-08-22T08:04:58.005Z,22.42
2022-08-22T08:07:28.948Z,22.54
2022-08-22T08:10:03.535Z,22.63
2022-08-22T08:12:41.020Z,22.97
2022-08-22T08:15:12.496Z,23.31
2022-08-22T08:17:40.055Z,23.44
2022-08-22T08:20:11.862Z,23.54
2022-08-22T08:22:43.004Z,23.50
2022-08-22T08:25:15.554Z,23.89
2022-08-22T08:28:01.048Z,24.14
2022-08-22T08:30:46.821Z,24.31
2022-08-22T08:33:26.152Z,24.47
2022-08-22T08:36:21.672Z,24.37
2022-08-22T08:39:35.349Z,24.42
2022-08-22T08:42:05.181Z,24.84
2022-08-22T08:44:52.329Z,25.07
2022-08-22T08:47:31.372Z,25.03
2022-08-22T08:50:16.333Z,25.00
2022-08-22T08:53:01.192Z,25.01
2022-08-22T08:56:19.655Z,25.06
2022-08-22T08:59:13.573Z,24.87
2022-08-22T09:02:24.991Z,25.36
2022-08-22T09:04:54.210Z,25.57
2022-08-22T09:08:05.900Z,25.31
2022-08-22T09:10:59.590Z,25.42
2022-08-22T09:14:04.903Z,25.86
2022-08-22T09:16:53.494Z,26.07
2022-08-22T09:19:49.730Z,26.18
2022-08-22T09:23:04.221Z,26.26
2022-08-22T09:26:05.817Z,26.54
2022-08-22T09:29:08.089Z,26.49
2022-08-22T09:31:54.887Z,26.38
2022-08-22T09:34:59.904Z,26.91
2022-08-22T09:37:47.873Z,26.88
2022-08-22T09:43:06.570Z,27.45
2022-08-22T09:45:36.189Z,27.12
2022-08-22T09:48:34.569Z,27.32
2022-08-22T09:51:33.169Z,27.26
2022-08-22T09:54:19.519Z,27.08
2022-08-22T09:56:49.130Z,26.73
2022-08-22T09:59:43.847Z,26.80
2022-08-22T10:02:50.323Z,27.12
2022-08-22T10:05:35.255Z,27.02
2022-08-22T10:08:20.006Z,26.71
2022-08-22T10:11:12.781Z,26.77
2022-08-22T10:13:57.317Z,26.82
2022-08-22T10:16:59.048Z,27.00
2022-08-22T10:19:49.471Z,26.85
2022-08-22T10:22:41.307Z,26.88
2022-08-22T10:25:33.563Z,27.18
2022-08-22T10:28:13.038Z,27.69
2022-08-22T10:30:54.884Z,27.77
2022-08-22T10:33:33.523Z,28.22
2022-08-22T10:36:12.063Z,28.15
2022-08-22T10:38:49.133Z,28.44
2022-08-22T10:41:38.560Z,28.52
2022-08-22T10:44:21.479Z,28.40
2022-08-22T10:47:05.360Z,28.26
2022-08-22T10:49:45.648Z,28.17
2022-08-22T10:52:46.895Z,27.86
2022-08-22T10:55:33.052Z,27.37
2022-08-22T10:58:07.571Z,26.87
2022-08-22T11:00:50.148Z,26.73
2022-08-22T11:03:23.325Z,26.90
2022-08-22T11:05:54.294Z,26.60
2022-08-22T11:08:44.394Z,26.50
2022-08-22T11:11:32.480Z,26.90
2022-08-22T11:14:47.712Z,26.87
2022-08-22T11:17:28.806Z,27.31
2022-08-22T11:20:19.678Z,27.46
2022-08-22T11:23:04.412Z,27.56
2022-08-22T11:25:41.328Z,27.61
2022-08-22T11:28:20.508Z,27.73
2022-08-22T11:31:07.154Z,27.82
2022-08-22T11:34:07.705Z,28.16
2022-08-22T11:36:50.671Z,28.53
2022-08-22T11:39:28.434Z,28.88
2022-08-22T11:41:57.875Z,29.08
2022-08-22T11:44:34.814Z,29.30
2022-08-22T11:47:10.907Z,29.24
2022-08-22T11:50:19.805Z,28.98
2022-08-22T11:53:15.624Z,28.08
2022-08-22T11:55:48.518Z,27.55
2022-08-22T11:58:43.924Z,27.28
2022-08-22T12:01:21.083Z,27.55
2022-08-22T12:04:12.943Z,27.95
2022-08-22T12:07:00.010Z,28.40
2022-08-22T12:09:43.686Z,28.27
2022-08-22T12:12:24.334Z,28.13
2022-08-22T12:14:51.118Z,28.20
2022-08-22T12:18:01.030Z,28.63
2022-08-22T12:20:52.678Z,28.65
2022-08-22T12:23:49.476Z,28.92
2022-08-22T12:26:36.411Z,29.39
2022-08-22T12:29:44.738Z,29.70
2022-08-22T12:32:56.329Z,29.76
2022-08-22T12:35:52.834Z,29.50
2022-08-22T12:38:47.483Z,29.31
2022-08-22T12:41:48.162Z,29.77
2022-08-22T12:44:39.878Z,29.85
2022-08-22T12:47:11.779Z,29.89
2022-08-22T12:50:03.857Z,29.68
2022-08-22T12:52:46.116Z,29.52
2022-08-22T12:55:28.005Z,29.68
2022-08-22T12:58:04.911Z,29.89
2022-08-22T13:00:47.270Z,29.91
2022-08-22T13:03:43.525Z,30.08
2022-08-22T13:06:35.100Z,30.02
2022-08-22T13:09:18.692Z,30.47
2022-08-22T13:11:48.944Z,30.36
2022-08-22T13:14:25.994Z,30.11
2022-08-22T13:17:00.053Z,29.73
2022-08-22T13:20:01.968Z,29.81
2022-08-22T13:22:34.832Z,29.99
2022-08-22T13:25:08.629Z,29.78
2022-08-22T13:28:03.373Z,29.85
2022-08-22T13:30:38.792Z,30.07
2022-08-22T13:33:12.896Z,30.20
2022-08-22T13:36:10.839Z,30.15
2022-08-22T13:38:52.569Z,30.31
2022-08-22T13:41:24.989Z,30.39
2022-08-22T13:44:13.539Z,30.08
2022-08-22T13:47:10.845Z,30.00
2022-08-22T13:49:35.968Z,29.73
2022-08-22T13:52:29.401Z,29.34
2022-08-22T13:55:12.537Z,29.04
2022-08-22T13:57:51.697Z,29.02
2022-08-22T14:00:28.527Z,28.76
2022-08-22T14:03:20.100Z,28.74
2022-08-22T14:05:54.558Z,28.82
2022-08-22T14:08:36.853Z,28.86
2022-08-22T14:11:19.745Z,28.82
2022-08-22T14:13:55.588Z,28.69
2022-08-22T14:16:42.808Z,29.07
2022-08-22T14:19:13.408Z,29.29
2022-08-22T14:21:53.477Z,29.33
2022-08-22T14:24:32.999Z,29.55
2022-08-22T14:27:07.570Z,29.74
2022-08-22T14:29:50.512Z,29.94
2022-08-22T14:32:27.633Z,29.62
2022-08-22T14:35:23.139Z,29.73
2022-08-22T14:37:59.689Z,29.93
2022-08-22T14:40:33.624Z,30.03
2022-08-22T14:43:29.694Z,29.97
2022-08-22T14:46:02.218Z,30.18
2022-08-22T14:48:40.742Z,29.96
2022-08-22T14:51:26.202Z,29.77
2022-08-22T14:54:00.570Z,29.69
2022-08-22T14:56:30.760Z,29.88
2022-08-22T14:59:00.898Z,29.60
2022-08-22T15:01:32.742Z,29.52
2022-08-22T15:04:04.609Z,29.95
2022-08-22T15:06:47.596Z,30.20
2022-08-22T15:09:34.723Z,30.02
2022-08-22T15:12:03.997Z,30.05
2022-08-22T15:14:37.490Z,30.17
2022-08-22T15:17:09.464Z,29.90
2022-08-22T15:19:41.066Z,29.94
2022-08-22T15:22:11.323Z,29.68
2022-08-22T15:25:02.474Z,29.75
2022-08-22T15:27:32.698Z,29.52
2022-08-22T15:30:02.970Z,29.06
2022-08-22T15:32:34.943Z,28.74
2022-08-22T15:35:31.874Z,28.39
2022-08-22T15:38:05.536Z,28.25
2022-08-22T15:40:45.870Z,28.17
2022-08-22T15:43:23.626Z,28.79
2022-08-22T15:46:07.369Z,29.02
2022-08-22T15:48:39.014Z,29.36
2022-08-22T15:51:13.411Z,30.39
2022-08-22T15:54:01.485Z,31.42
2022-08-22T15:56:32.491Z,31.59
2022-08-22T15:59:31.254Z,32.76
2022-08-22T16:02:30.452Z,32.95
2022-08-22T16:05:28.839Z,32.75
2022-08-22T16:07:58.103Z,32.36
2022-08-22T16:10:24.705Z,32.23
2022-08-22T16:13:16.835Z,31.68
2022-08-22T16:15:56.555Z,32.37
2022-08-22T16:18:36.885Z,33.36
2022-08-22T16:21:16.603Z,34.66
2022-08-22T16:23:49.659Z,35.75
2022-08-22T16:26:31.076Z,35.76
2022-08-22T16:29:18.019Z,33.85
2022-08-22T16:31:44.765Z,31.95
2022-08-22T16:34:17.358Z,31.06
2022-08-22T16:36:47.131Z,30.08
2022-08-22T16:39:40.903Z,29.08
2022-08-22T16:42:18.226Z,28.65
2022-08-22T16:45:05.132Z,28.15
2022-08-22T16:47:40.064Z,27.70
2022-08-22T16:50:27.192Z,27.49
2022-08-22T16:52:59.667Z,27.11
2022-08-22T16:55:29.269Z,26.80
2022-08-22T16:58:06.436Z,26.65
2022-08-22T17:00:39.024Z,26.38
2022-08-22T17:03:11.692Z,26.29
2022-08-22T17:05:54.791Z,26.21
2022-08-22T17:09:01.408Z,26.15
2022-08-22T17:11:49.642Z,26.07
2022-08-22T17:14:56.050Z,25.89
2022-08-22T17:17:28.948Z,25.68
2022-08-22T17:20:08.251Z,25.64
2022-08-22T17:23:02.455Z,25.51
2022-08-22T17:25:59.047Z,25.41
2022-08-22T17:28:47.423Z,25.40
2022-08-22T17:31:40.546Z,25.31
2022-08-22T17:34:19.171Z,25.16
2022-08-22T17:37:01.024Z,25.05
2022-08-22T17:39:45.717Z,24.94
2022-08-22T17:43:08.364Z,24.89
2022-08-22T17:45:53.161Z,24.87
2022-08-22T17:48:28.542Z,24.86
2022-08-22T17:51:03.962Z,24.78
2022-08-22T17:53:44.968Z,24.71
2022-08-22T17:56:27.935Z,24.66
2022-08-22T17:59:09.023Z,24.54
2022-08-22T18:01:49.069Z,24.45
2022-08-22T18:04:57.378Z,24.30
2022-08-22T18:07:43.011Z,24.17
2022-08-22T18:10:18.040Z,24.10
2022-08-22T18:12:53.631Z,24.00
2022-08-22T18:15:28.394Z,23.95
2022-08-22T18:18:07.521Z,23.81
2022-08-22T18:21:02.567Z,23.73
2022-08-22T18:23:47.506Z,23.75
2022-08-22T18:26:24.014Z,23.70
2022-08-22T18:29:17.096Z,23.61
2022-08-22T18:32:11.075Z,23.40
2022-08-22T18:34:50.020Z,23.29
2022-08-22T18:37:24.419Z,23.10
2022-08-22T18:39:59.848Z,23.11
2022-08-22T18:42:35.263Z,23.01
2022-08-22T18:45:03.026Z,22.87
2022-08-22T18:47:33.543Z,22.74
2022-08-22T18:50:32.291Z,22.60
2022-08-22T18:52:59.497Z,22.59
2022-08-22T18:55:56.084Z,22.59
2022-08-22T18:58:54.218Z,22.59
2022-08-22T19:01:52.047Z,22.52
2022-08-22T19:04:24.669Z,22.46
2022-08-22T19:07:25.390Z,22.32
2022-08-22T19:10:36.851Z,22.27
2022-08-22T19:13:09.153Z,22.20
2022-08-22T19:16:06.761Z,22.13
2022-08-22T19:18:42.531Z,21.95
2022-08-22T19:21:34.699Z,21.94
2022-08-22T19:24:10.753Z,21.89
2022-08-22T19:27:05.616Z,21.86
2022-08-22T19:29:32.051Z,21.77
2022-08-22T19:32:12.988Z,21.66
2022-08-22T19:34:46.967Z,21.66
2022-08-22T19:37:30.786Z,21.61
2022-08-22T19:40:08.966Z,21.46
2022-08-22T19:42:38.199Z,21.43
2022-08-22T19:45:22.312Z,21.26
2022-08-22T19:48:00.345Z,21.25
2022-08-22T19:50:42.354Z,21.18
2022-08-22T19:53:39.746Z,21.15
2022-08-22T19:56:22.396Z,21.10
2022-08-22T19:59:16.561Z,20.95
2022-08-22T20:01:51.166Z,20.92
2022-08-22T20:04:23.826Z,20.86
2022-08-22T20:07:37.862Z,20.73
2022-08-22T20:10:41.159Z,20.68
2022-08-22T20:13:18.429Z,20.64
2022-08-22T20:16:05.940Z,20.57
2022-08-22T20:19:09.639Z,20.44
2022-08-22T20:21:49.111Z,20.34
2022-08-22T20:24:15.548Z,20.32
2022-08-22T20:27:10.124Z,20.30
2022-08-22T20:29:36.739Z,20.24
2022-08-22T20:32:06.084Z,20.22
2022-08-22T20:34:37.247Z,20.13
2022-08-22T20:37:29.028Z,20.12
2022-08-22T20:40:32.284Z,20.10
2022-08-22T20:43:02.675Z,20.03
2022-08-22T20:45:43.624Z,19.93
2022-08-22T20:48:11.088Z,19.90
2022-08-22T20:50:37.803Z,19.86
2022-08-22T20:53:15.166Z,19.81
2022-08-22T20:55:56.501Z,19.72
2022-08-22T20:58:26.157Z,19.79
2022-08-22T21:00:56.505Z,19.76
2022-08-22T21:03:45.798Z,19.77
2022-08-22T21:06:20.472Z,19.74
2022-08-22T21:09:11.814Z,19.77
2022-08-22T21:11:40.898Z,19.64
2022-08-22T21:14:25.646Z,19.68
2022-08-22T21:16:53.079Z,19.64
2022-08-22T21:19:24.888Z,19.49
2022-08-22T21:21:51.586Z,19.52
2022-08-22T21:24:18.602Z,19.45
2022-08-22T21:26:45.038Z,19.41
2022-08-22T21:29:14.456Z,19.47
2022-08-22T21:32:04.474Z,19.45
2022-08-22T21:34:33.923Z,19.45
2022-08-22T21:37:08.378Z,19.39
2022-08-22T21:39:37.608Z,19.33
2022-08-22T21:42:03.954Z,19.36
2022-08-22T21:44:54.234Z,19.31
2022-08-22T21:47:31.274Z,19.32
2022-08-22T21:50:13.426Z,19.21
2022-08-22T21:52:53.452Z,19.20
2022-08-22T21:55:27.322Z,19.15
2022-08-22T21:58:35.097Z,19.12
2022-08-22T22:01:24.990Z,19.10
2022-08-22T22:03:54.541Z,19.06
2022-08-22T22:06:21.018Z,18.99
2022-08-22T22:08:47.511Z,18.89
2022-08-22T22:11:15.399Z,18.88
2022-08-22T22:13:42.798Z,18.78
2022-08-22T22:16:12.006Z,18.79
2022-08-22T22:18:39.309Z,18.74
2022-08-22T22:21:05.869Z,18.83
2022-08-22T22:23:32.465Z,18.77
2022-08-22T22:26:02.380Z,18.72
2022-08-22T22:28:34.754Z,18.66
2022-08-22T22:31:01.339Z,18.63
2022-08-22T22:33:31.721Z,18.58
2022-08-22T22:36:03.778Z,18.52
2022-08-22T22:38:30.252Z,18.48
2022-08-22T22:40:56.750Z,18.51
2022-08-22T22:43:23.812Z,18.50
2022-08-22T22:45:50.596Z,18.47
2022-08-22T22:48:24.338Z,18.41
2022-08-22T22:50:54.669Z,18.36
2022-08-22T22:53:33.827Z,18.24
2022-08-22T22:56:06.653Z,18.19
2022-08-22T22:58:37.583Z,18.17
2022-08-22T23:01:24.983Z,18.27
2022-08-22T23:04:03.248Z,18.27
2022-08-22T23:06:33.015Z,18.17
2022-08-22T23:08:59.644Z,18.05
2022-08-22T23:11:30.375Z,17.93
2022-08-22T23:13:57.336Z,17.86
2022-08-22T23:16:27.131Z,17.75
2022-08-22T23:18:54.075Z,17.75
2022-08-22T23:21:26.389Z,17.74
2022-08-22T23:23:55.620Z,17.63
2022-08-22T23:26:22.282Z,17.59
2022-08-22T23:28:49.097Z,17.49
2022-08-22T23:31:28.838Z,17.47
2022-08-22T23:33:56.080Z,17.57
2022-08-22T23:36:23.658Z,17.51
2022-08-22T23:38:51.875Z,17.51
2022-08-22T23:41:19.409Z,17.60
2022-08-22T23:43:49.531Z,17.60
2022-08-22T23:46:20.447Z,17.52
2022-08-22T23:48:51.135Z,17.47
2022-08-22T23:51:23.145Z,17.34
2022-08-22T23:53:50.124Z,17.31
2022-08-22T23:56:26.679Z,17.22
2022-08-22T23:58:53.571Z,17.09
